Herington Regional Airport


Codes: KHRU/
Name: Herington Regional Airport
City: Herington
Country: United States
Elevation: 1480 ft.
Wikipedia:

Photos at Herington Regional Airport


   Photos courtesy of SpottingLog. You can add your own sightings and photos by signing up for a free trial today.



No photos found.

Weather at Herington Regional Airport


Time (UTC)DescriptionTempratureWindCloud coverageVisibilityPressureHumidity
15-Apr-2024 18:00Broken Clouds22°C22 mph, SE57%10000m1008hPa70%
15-Apr-2024 21:00Broken Clouds24°C27 mph, SE83%10000m1005hPa65%
16-Apr-2024 00:00Overcast Clouds23°C25 mph, S100%10000m1003hPa72%
16-Apr-2024 03:00Scattered Clouds20°C25 mph, S43%10000m1002hPa83%
16-Apr-2024 06:00Light Rain20°C27 mph, S47%10000m1001hPa81%
16-Apr-2024 09:00Light Rain20°C29 mph, S100%10000m997hPa81%
16-Apr-2024 12:00Broken Clouds18°C25 mph, S70%10000m997hPa70%
16-Apr-2024 15:00Clear Sky20°C25 mph, SW0%10000m996hPa43%
16-Apr-2024 18:00Clear Sky22°C27 mph, SW0%10000m995hPa31%
16-Apr-2024 21:00Clear Sky25°C25 mph, SW5%10000m994hPa24%
17-Apr-2024 00:00Light Rain21°C25 mph, W31%10000m996hPa53%
17-Apr-2024 03:00Broken Clouds17°C25 mph, W69%10000m1001hPa60%
17-Apr-2024 06:00Scattered Clouds13°C22 mph, NW37%10000m1004hPa68%
17-Apr-2024 09:00Broken Clouds12°C18 mph, NW68%10000m1007hPa69%
17-Apr-2024 12:00Broken Clouds12°C13 mph, NW61%10000m1009hPa74%
17-Apr-2024 15:00Clear Sky15°C18 mph, NW1%10000m1012hPa59%
17-Apr-2024 18:00Clear Sky20°C16 mph, NW1%10000m1012hPa44%
17-Apr-2024 21:00Clear Sky22°C11 mph, NW1%10000m1011hPa37%
18-Apr-2024 00:00Clear Sky20°C7 mph, NW1%10000m1012hPa45%
18-Apr-2024 03:00Clear Sky16°C9 mph, SE9%10000m1013hPa53%
18-Apr-2024 06:00Clear Sky14°C16 mph, SE7%10000m1012hPa63%
18-Apr-2024 09:00Few Clouds13°C13 mph, SE23%10000m1011hPa71%
18-Apr-2024 12:00Broken Clouds10°C13 mph, E62%10000m1014hPa82%
18-Apr-2024 15:00Overcast Clouds14°C18 mph, NE94%10000m1014hPa68%
18-Apr-2024 18:00Overcast Clouds14°C20 mph, NE97%10000m1016hPa60%
18-Apr-2024 21:00Overcast Clouds9°C22 mph, N100%10000m1019hPa76%
19-Apr-2024 00:00Overcast Clouds7°C18 mph, N100%10000m1021hPa78%
19-Apr-2024 03:00Broken Clouds6°C11 mph, N72%10000m1022hPa78%
19-Apr-2024 06:00Broken Clouds5°C7 mph, NE52%10000m1024hPa87%
19-Apr-2024 09:00Overcast Clouds6°C9 mph, NE100%10000m1024hPa71%
19-Apr-2024 12:00Broken Clouds4°C9 mph, N79%10000m1026hPa67%
19-Apr-2024 15:00Overcast Clouds10°C16 mph, NE92%10000m1025hPa35%
19-Apr-2024 18:00Overcast Clouds12°C11 mph, NE96%10000m1025hPa36%
19-Apr-2024 21:00Overcast Clouds14°C9 mph, NE100%10000m1023hPa36%
20-Apr-2024 00:00Overcast Clouds13°C9 mph, NE99%10000m1023hPa41%
20-Apr-2024 03:00Overcast Clouds10°C7 mph, NE100%10000m1025hPa46%
20-Apr-2024 06:00Overcast Clouds9°C9 mph, NE100%10000m1025hPa46%
20-Apr-2024 09:00Overcast Clouds8°C13 mph, NE100%10000m1026hPa48%
20-Apr-2024 12:00Overcast Clouds6°C16 mph, NE100%10000m1028hPa44%
20-Apr-2024 15:00Light Rain5°C11 mph, NE100%10000m1029hPa82%